Overview Statistics Trail Chart Weather Telemetry Raw packets
 

This is the latest recevied weather packets stored in our database for station/object OK2KJT-11. If no packets are shown the sender has not sent any weather packets the latest 10 day(s).

<< 45 46 47 48 49 50 51 >>
Time Temp. Humidity Pressure Rain* Wind** Luminosity Snow
1788012099 21.11° C 56% 1018.8 hPa - - - -
1788011499 21.11° C 57% 1018.9 hPa - - - -
1788010900 21.11° C 56% 1018.8 hPa - - - -
1788010300 20.56° C 59% 1018.8 hPa - - - -
1788009707 20.56° C 58% 1018.9 hPa - - - -
1788009107 20.56° C 55% 1019.1 hPa - - - -
1788008499 21.11° C 54% 1019.2 hPa - - - -
1788007899 21.67° C 54% 1019 hPa - - - -
1788006699 20.56° C 57% 1019.1 hPa - - - -
1788006099 20.56° C 56% 1019.2 hPa - - - -
1788005499 19.44° C 62% 1019.1 hPa - - - -
1788004908 19.44° C 60% 1019.1 hPa - - - -
1788004302 20.56° C 59% 1019.1 hPa - - - -
1788003702 20.56° C 61% 1019.3 hPa - - - -
1788003104 20° C 62% 1019.1 hPa - - - -
1788002504 20.56° C 59% 1019.2 hPa - - - -
1788001904 20.56° C 62% 1019.2 hPa - - - -
1788001304 21.11° C 60% 1019.3 hPa - - - -
1788000705 20.56° C 63% 1019.2 hPa - - - -
1788000105 20.56° C 65% 1019.2 hPa - - - -
1787999505 20° C 66% 1019.2 hPa - - - -
1787998905 20° C 66% 1019.2 hPa - - - -
1787998306 20° C 67% 1019.2 hPa - - - -
1787997107 18.89° C 73% 1019 hPa - - - -
1787996508 18.89° C 73% 1019 hPa - - - -

* Rain since midnight (hover to see other rain measurements)
** Current wind speed in m/s (hover to see current wind gust speed)